createdAt,value
2023-03-14T00:00:07.858Z,9.669189453
2023-03-14T00:01:09.188Z,9.699401855
2023-03-14T00:02:09.574Z,9.729614258
2023-03-14T00:03:10.814Z,9.669189453
2023-03-14T00:04:11.257Z,9.649047852
2023-03-14T00:05:11.678Z,9.578552246
2023-03-14T00:06:13.137Z,9.528198242
2023-03-14T00:07:13.481Z,9.548339844
2023-03-14T00:08:13.895Z,9.518127441
2023-03-14T00:09:14.329Z,9.558410645
2023-03-14T00:10:14.744Z,9.558410645
2023-03-14T00:11:15.233Z,9.548339844
2023-03-14T00:12:15.524Z,9.548339844
2023-03-14T00:13:15.958Z,9.548339844
2023-03-14T00:14:16.415Z,9.558410645
2023-03-14T00:15:16.830Z,9.518127441
2023-03-14T00:16:18.148Z,9.49798584
2023-03-14T00:17:18.476Z,9.548339844
2023-03-14T00:18:18.864Z,9.578552246
2023-03-14T00:19:19.316Z,9.518127441
2023-03-14T00:20:19.754Z,9.528198242
2023-03-14T00:21:20.182Z,9.578552246
2023-03-14T00:22:20.601Z,9.528198242
2023-03-14T00:23:21.016Z,9.49798584
2023-03-14T00:24:21.431Z,9.477844238
2023-03-14T00:25:21.911Z,9.447631836
2023-03-14T00:26:23.146Z,9.417419434
2023-03-14T00:27:23.548Z,9.417419434
2023-03-14T00:28:23.944Z,9.49798584
2023-03-14T00:29:24.316Z,9.49798584
2023-03-14T00:30:24.799Z,9.447631836
2023-03-14T00:31:26.090Z,9.447631836
2023-03-14T00:32:26.624Z,9.518127441
2023-03-14T00:33:26.992Z,9.558410645
2023-03-14T00:34:27.397Z,9.548339844
2023-03-14T00:35:28.760Z,9.548339844
2023-03-14T00:36:30.213Z,9.578552246
2023-03-14T00:38:01.044Z,9.598693848
2023-03-14T00:39:01.479Z,9.62890625
2023-03-14T00:40:01.885Z,9.618835449
2023-03-14T00:41:02.370Z,9.598693848
2023-03-14T00:42:02.897Z,9.618835449
2023-03-14T00:43:03.290Z,9.649047852
2023-03-14T00:44:03.691Z,9.62890625
2023-03-14T00:45:04.122Z,9.679260254
2023-03-14T00:46:04.568Z,9.62890625
2023-03-14T00:47:05.825Z,9.699401855
2023-03-14T00:48:06.193Z,9.699401855
2023-03-14T00:49:06.591Z,9.709472656
2023-03-14T00:50:07.176Z,9.729614258
2023-03-14T00:51:07.615Z,9.779968262
2023-03-14T00:52:08.069Z,9.860534668
2023-03-14T00:53:08.505Z,9.88067627
2023-03-14T00:54:09.028Z,9.88067627
2023-03-14T00:55:09.448Z,9.920959473
2023-03-14T00:56:09.911Z,9.951171875
2023-03-14T00:57:10.404Z,9.920959473
2023-03-14T00:58:10.820Z,9.951171875
2023-03-14T00:59:11.324Z,9.961242676
2023-03-14T01:00:12.284Z,10.01159668
2023-03-14T01:01:12.721Z,10.02166748
2023-03-14T01:02:13.237Z,10.01159668
2023-03-14T01:03:13.670Z,9.991455078
2023-03-14T01:04:13.939Z,10.02166748
2023-03-14T01:05:14.378Z,9.951171875
2023-03-14T01:06:14.837Z,9.931030273
2023-03-14T01:07:15.829Z,9.961242676
2023-03-14T01:08:16.188Z,9.961242676
2023-03-14T01:09:16.567Z,9.981384277
2023-03-14T01:10:16.984Z,9.981384277
2023-03-14T01:11:17.428Z,10.02166748
2023-03-14T01:12:17.855Z,10.07202148
2023-03-14T01:13:18.366Z,10.10223389
2023-03-14T01:14:18.776Z,10.11230469
2023-03-14T01:15:19.166Z,10.10223389
2023-03-14T01:16:19.656Z,10.09216309
2023-03-14T01:17:20.894Z,10.06195068
2023-03-14T01:18:21.211Z,10.07202148
2023-03-14T01:19:21.630Z,10.09216309
2023-03-14T01:20:22.743Z,10.04180908
2023-03-14T01:21:23.145Z,10.06195068
2023-03-14T01:22:23.598Z,9.991455078
2023-03-14T01:23:23.961Z,9.991455078
2023-03-14T01:24:24.431Z,10.02166748
2023-03-14T01:25:24.880Z,10.04180908
2023-03-14T01:26:25.266Z,10.07202148
2023-03-14T01:27:26.298Z,10.13244629
2023-03-14T01:28:26.689Z,10.13244629
2023-03-14T01:29:27.120Z,10.09216309
2023-03-14T01:30:27.503Z,10.09216309
2023-03-14T01:31:28.032Z,10.07202148
2023-03-14T01:32:29.087Z,10.13244629
2023-03-14T01:33:29.452Z,10.13244629
2023-03-14T01:35:00.318Z,10.16265869
2023-03-14T01:36:00.792Z,10.18280029
2023-03-14T01:37:02.052Z,10.14251709
2023-03-14T01:38:02.720Z,10.02166748
2023-03-14T01:39:03.162Z,9.991455078
2023-03-14T01:40:03.636Z,9.961242676
2023-03-14T01:41:04.122Z,9.910888672
2023-03-14T01:42:04.540Z,9.860534668
2023-03-14T01:43:04.984Z,9.88067627
2023-03-14T01:44:05.332Z,9.89074707
2023-03-14T01:45:05.740Z,9.89074707
2023-03-14T01:46:06.364Z,9.920959473
2023-03-14T01:47:07.560Z,9.88067627
2023-03-14T01:48:07.993Z,9.88067627
2023-03-14T01:49:08.368Z,9.850463867
2023-03-14T01:50:08.767Z,9.850463867
2023-03-14T01:51:09.162Z,9.860534668
2023-03-14T01:52:09.572Z,9.860534668
2023-03-14T01:53:10.013Z,9.89074707
2023-03-14T01:54:11.254Z,9.910888672
2023-03-14T01:55:11.642Z,9.951171875
2023-03-14T01:56:12.077Z,9.991455078
2023-03-14T01:57:12.534Z,9.951171875
2023-03-14T01:58:13.067Z,9.961242676
2023-03-14T01:59:13.386Z,9.961242676
2023-03-14T02:00:13.780Z,9.981384277
2023-03-14T02:01:14.243Z,9.981384277
2023-03-14T02:02:14.562Z,10.02166748
2023-03-14T02:03:15.149Z,10.06195068
2023-03-14T02:04:15.495Z,9.961242676
2023-03-14T02:05:15.874Z,9.910888672
2023-03-14T02:06:16.289Z,9.89074707
2023-03-14T02:07:17.557Z,9.89074707
2023-03-14T02:08:17.990Z,9.920959473
2023-03-14T02:09:18.417Z,10.01159668
2023-03-14T02:10:18.809Z,10.01159668
2023-03-14T02:11:19.239Z,10.02166748
2023-03-14T02:12:19.632Z,9.991455078
2023-03-14T02:13:20.065Z,10.04180908
2023-03-14T02:14:20.436Z,10.10223389
2023-03-14T02:15:20.869Z,10.10223389
2023-03-14T02:16:21.352Z,10.14251709
2023-03-14T02:17:22.559Z,10.2230835
2023-03-14T02:18:23.088Z,10.2633667
2023-03-14T02:19:23.407Z,10.2935791
2023-03-14T02:20:23.860Z,10.34393311
2023-03-14T02:21:24.309Z,10.34393311
2023-03-14T02:22:24.730Z,10.35400391
2023-03-14T02:23:25.308Z,10.39428711
2023-03-14T02:24:25.634Z,10.39428711
2023-03-14T02:25:26.090Z,10.42449951
2023-03-14T02:26:26.489Z,10.38421631
2023-03-14T02:27:27.557Z,10.38421631
2023-03-14T02:28:28.025Z,10.38421631
2023-03-14T02:29:28.391Z,10.35400391
2023-03-14T02:30:29.299Z,10.38421631
2023-03-14T02:32:00.050Z,10.35400391
2023-03-14T02:33:01.282Z,10.34393311
2023-03-14T02:34:01.923Z,10.3137207
2023-03-14T02:35:02.511Z,10.3237915
2023-03-14T02:36:02.949Z,10.34393311
2023-03-14T02:37:03.317Z,10.35400391
2023-03-14T02:38:04.296Z,10.35400391
2023-03-14T02:39:04.734Z,10.3237915
2023-03-14T02:40:05.164Z,10.34393311
2023-03-14T02:41:05.570Z,10.35400391
2023-03-14T02:42:05.988Z,10.38421631
2023-03-14T02:43:06.424Z,10.39428711
2023-03-14T02:44:06.885Z,10.44464111
2023-03-14T02:45:07.307Z,10.44464111
2023-03-14T02:46:07.789Z,10.47485352
2023-03-14T02:47:08.241Z,10.44464111
2023-03-14T02:48:09.283Z,10.39428711
2023-03-14T02:49:09.724Z,10.39428711
2023-03-14T02:50:10.214Z,10.39428711
2023-03-14T02:51:10.698Z,10.43457031
2023-03-14T02:52:11.138Z,10.44464111
2023-03-14T02:53:11.573Z,10.46478271
2023-03-14T02:54:11.989Z,10.43457031
2023-03-14T02:55:12.484Z,10.46478271
2023-03-14T02:56:12.914Z,10.47485352
2023-03-14T02:57:13.310Z,10.50506592
2023-03-14T02:58:14.257Z,10.56549072
2023-03-14T02:59:14.754Z,10.56549072
2023-03-14T03:00:15.141Z,10.59570313
2023-03-14T03:01:15.733Z,10.61584473
2023-03-14T03:02:16.092Z,10.61584473
2023-03-14T03:03:17.367Z,10.62591553
2023-03-14T03:04:17.857Z,10.65612793
2023-03-14T03:05:18.163Z,10.67626953
2023-03-14T03:06:18.545Z,10.69641113
2023-03-14T03:07:19.025Z,10.67626953
2023-03-14T03:08:20.362Z,10.59570313
2023-03-14T03:09:20.918Z,10.59570313
2023-03-14T03:10:21.227Z,10.59570313
2023-03-14T03:11:21.631Z,10.59570313
2023-03-14T03:12:22.062Z,10.54534912
2023-03-14T03:13:22.543Z,10.53527832
2023-03-14T03:14:23.898Z,10.56549072
2023-03-14T03:15:24.228Z,10.56549072
2023-03-14T03:16:24.676Z,10.53527832
2023-03-14T03:17:25.042Z,10.51513672
2023-03-14T03:18:25.482Z,10.50506592
2023-03-14T03:19:25.905Z,10.54534912
2023-03-14T03:20:26.358Z,10.56549072
2023-03-14T03:21:26.754Z,10.56549072
2023-03-14T03:22:27.167Z,10.54534912
2023-03-14T03:23:27.621Z,10.53527832
2023-03-14T03:24:28.555Z,10.50506592
2023-03-14T03:25:59.205Z,10.49499512
2023-03-14T03:26:59.600Z,10.49499512
